Terminal Aerodrome Forecast
Issued by NWS Cleveland, OH

Home | Current Version | Previous Version | Text Only | Print | Product List | Glossary Off
Versions: 1 2 3 4 5 6 7 8 9 10 11 12 13 14 15 16 17 18 19

944
FTUS41 KCLE 220706 AAA
TAFTOL
TAF AMD
KTOL 220706Z 2207/2306 00000KT P6SM OVC007
     FM221000 00000KT 1 1/2SM BR OVC003
     FM221400 25007KT 4SM BR OVC015
     FM221800 29010KT P6SM BKN045=

USA.gov is the U.S. government's official web portal to all federal, state and local government web resources and services.